Terminal Aerodrome Forecast
Issued by NWS Sioux Falls, SD

Home | Current Version | Previous Version | Text Only | Print | Product List | Glossary On
Versions: 1 2 3 4 5 6 7 8 9 10 11 12 13
000
FTUS43 KFSD 092322
TAFSUX
TAF
KSUX 092322Z 1000/1024 12004KT P6SM OVC070
     FM100300 VRB03KT P6SM BKN040
     FM101200 10005KT 6SM -SN OVC035
     FM101500 11009KT 1 1/2SM -SN OVC015
     FM101800 12012KT 5SM -SN OVC010
     FM102300 12013KT P6SM OVC020=

USA.gov is the U.S. government's official web portal to all federal, state and local government web resources and services.